Time;durP1;ratioP1;P1;durP2;ratioP2;P2;SDS_P1;SDS_P2;PMS_P1;PMS_P2;Temp;Humidity;BMP_temperature;BMP_pressure;BME280_temperature;BME280_humidity;BME280_pressure;Samples;Min_cycle;Max_cycle;Signal;HPM_P1;HPM_P2
2022/05/04 00:01:15;;;;;;;20.93;11.73;;;10.70;27.00;;;;;;5063074;28;20234;-83
2022/05/04 00:03:40;;;;;;;20.90;11.57;;;10.70;24.30;;;;;;5054180;28;20869;-81
2022/05/04 00:06:07;;;;;;;22.90;12.57;;;10.70;23.10;;;;;;5055194;28;20220;-82
2022/05/04 00:08:33;;;;;;;19.80;11.13;;;10.60;24.80;;;;;;5055175;28;20165;-83
2022/05/04 00:10:59;;;;;;;17.57;10.90;;;10.60;24.80;;;;;;5042287;28;20182;-85
2022/05/04 00:13:25;;;;;;;19.67;11.00;;;10.60;25.20;;;;;;5033967;28;20261;-81
2022/05/04 00:15:51;;;;;;;20.03;12.30;;;10.60;27.90;;;;;;5033923;28;20276;-83
2022/05/04 00:18:17;;;;;;;18.13;12.83;;;10.70;26.00;;;;;;5034714;28;20185;-82
2022/05/04 00:20:42;;;;;;;18.53;10.93;;;10.60;26.30;;;;;;5033183;28;20545;-83
2022/05/04 00:23:08;;;;;;;19.53;12.67;;;10.60;25.30;;;;;;5033824;28;20162;-83
2022/05/04 00:25:34;;;;;;;16.77;10.70;;;10.60;25.10;;;;;;5049143;28;20208;-82
2022/05/04 00:28:00;;;;;;;14.07;9.47;;;10.60;22.50;;;;;;5052428;28;20627;-83
2022/05/04 00:30:26;;;;;;;18.13;11.00;;;10.60;20.10;;;;;;5050498;28;20169;-81
2022/05/04 00:32:52;;;;;;;19.83;12.93;;;10.60;21.00;;;;;;5055172;28;20182;-83
2022/05/04 00:35:18;;;;;;;15.90;10.47;;;10.60;21.50;;;;;;5048873;28;20244;-82
2022/05/04 00:37:43;;;;;;;21.57;12.33;;;10.60;21.40;;;;;;5042796;28;20170;-83
2022/05/04 00:40:09;;;;;;;19.53;12.17;;;10.60;21.40;;;;;;5037649;28;20231;-82
2022/05/04 00:42:35;;;;;;;20.50;11.83;;;10.60;21.70;;;;;;5033342;28;20174;-82
2022/05/04 00:45:01;;;;;;;18.30;10.93;;;10.70;21.60;;;;;;5031999;28;20209;-83
2022/05/04 00:47:26;;;;;;;18.70;11.23;;;10.60;19.30;;;;;;5033125;28;20610;-83
2022/05/04 00:49:52;;;;;;;16.53;10.83;;;10.60;17.70;;;;;;5033214;28;20177;-83
2022/05/04 00:52:18;;;;;;;19.90;11.53;;;10.50;18.30;;;;;;5035255;28;20178;-83
2022/05/04 00:54:49;;;;;;;18.53;11.40;;;10.40;20.60;;;;;;5033374;28;20165;-83
2022/05/04 00:57:17;;;;;;;19.53;11.17;;;10.40;22.50;;;;;;5033288;28;20166;-83
2022/05/04 00:59:43;;;;;;;19.63;11.60;;;10.40;21.60;;;;;;5034981;28;20316;-82
2022/05/04 01:02:09;;;;;;;23.80;11.23;;;10.40;22.50;;;;;;5036476;28;20850;-83
2022/05/04 01:04:36;;;;;;;16.87;11.00;;;10.50;22.80;;;;;;5036635;28;20271;-83
2022/05/04 01:07:02;;;;;;;21.83;11.63;;;10.40;22.60;;;;;;5037194;28;20324;-83
2022/05/04 01:09:27;;;;;;;17.60;11.10;;;10.40;23.10;;;;;;5035585;28;20264;-83
2022/05/04 01:11:55;;;;;;;19.27;12.47;;;10.40;21.70;;;;;;5036560;28;20659;-83
2022/05/04 01:14:20;;;;;;;17.33;11.20;;;10.30;23.00;;;;;;5040508;28;20181;-84
2022/05/04 01:16:50;;;;;;;19.27;12.27;;;10.30;24.70;;;;;;5050889;28;20200;-83
2022/05/04 01:19:16;;;;;;;21.00;10.73;;;10.40;23.70;;;;;;5054269;28;20664;-82
2022/05/04 01:21:41;;;;;;;20.33;11.83;;;10.40;20.30;;;;;;5057618;28;20269;-83
2022/05/04 01:24:09;;;;;;;17.47;11.57;;;10.30;22.80;;;;;;5051375;28;20162;-82
2022/05/04 01:26:35;;;;;;;14.53;10.67;;;10.30;24.00;;;;;;5058659;28;20206;-81
2022/05/04 01:29:01;;;;;;;19.40;11.73;;;10.30;26.20;;;;;;5058363;28;20158;-81
2022/05/04 01:31:27;;;;;;;16.97;11.10;;;10.30;23.50;;;;;;5058883;28;20185;-84
2022/05/04 01:33:52;;;;;;;16.50;10.57;;;10.30;20.30;;;;;;5059455;28;20154;-80
2022/05/04 01:36:18;;;;;;;18.33;11.77;;;10.40;21.80;;;;;;5057346;28;20166;-81
2022/05/04 01:38:44;;;;;;;16.13;11.50;;;10.30;19.80;;;;;;5048352;28;20185;-82
2022/05/04 01:42:02;;;;;;;16.00;10.67;;;10.30;21.70;;;;;;5038557;28;20169;-83
2022/05/04 01:43:56;;;;;;;24.70;11.63;;;10.20;21.20;;;;;;5038906;28;20181;-84
2022/05/04 01:46:22;;;;;;;17.60;11.33;;;10.30;24.70;;;;;;5036244;28;20213;-82
2022/05/04 01:48:49;;;;;;;18.07;11.23;;;10.30;23.80;;;;;;5037586;28;20637;-82
2022/05/04 01:51:15;;;;;;;16.33;11.57;;;10.20;24.30;;;;;;5038849;28;20223;-81
2022/05/04 01:53:41;;;;;;;18.43;11.37;;;10.20;24.70;;;;;;5039819;28;20170;-84
2022/05/04 01:56:10;;;;;;;21.13;10.87;;;10.40;23.80;;;;;;5041067;28;20232;-82
2022/05/04 01:58:36;;;;;;;19.77;11.90;;;10.30;21.90;;;;;;5039433;28;20256;-83
2022/05/04 02:01:02;;;;;;;17.23;11.80;;;10.30;21.30;;;;;;5040245;28;20201;-81
2022/05/04 02:03:29;;;;;;;19.67;11.83;;;10.30;22.60;;;;;;5048352;28;20181;-82
2022/05/04 02:05:55;;;;;;;16.93;11.40;;;10.20;25.20;;;;;;5051914;28;20271;-83
2022/05/04 02:08:24;;;;;;;16.50;10.33;;;10.30;25.00;;;;;;5035976;28;20231;-82
2022/05/04 02:10:50;;;;;;;18.53;10.73;;;10.30;23.80;;;;;;5034149;28;20240;-83
2022/05/04 02:13:16;;;;;;;19.10;11.07;;;10.20;24.10;;;;;;5035238;28;20166;-82
2022/05/04 02:15:41;;;;;;;16.03;9.73;;;10.20;23.20;;;;;;5035231;28;20194;-80
2022/05/04 02:18:07;;;;;;;16.23;10.27;;;10.30;22.60;;;;;;5035865;28;20181;-83
2022/05/04 02:20:33;;;;;;;16.57;10.87;;;10.10;24.10;;;;;;5036341;28;20208;-82
2022/05/04 02:22:59;;;;;;;14.97;10.17;;;10.10;25.40;;;;;;5038319;28;20173;-83
2022/05/04 02:25:24;;;;;;;17.47;11.30;;;10.10;25.30;;;;;;5037602;28;20260;-82
2022/05/04 02:27:50;;;;;;;16.70;11.10;;;10.20;24.80;;;;;;5036581;28;20162;-83
2022/05/04 02:30:16;;;;;;;20.93;11.37;;;10.30;24.70;;;;;;5033350;28;20594;-82
2022/05/04 02:32:41;;;;;;;17.70;11.83;;;10.20;25.90;;;;;;5034906;28;20176;-80
2022/05/04 02:37:54;;;;;;;19.17;11.00;;;10.20;23.40;;;;;;5034529;28;20234;-82
2022/05/04 02:40:20;;;;;;;17.97;11.47;;;10.30;21.40;;;;;;5034135;28;20178;-82
2022/05/04 02:42:46;;;;;;;17.97;10.47;;;10.20;22.40;;;;;;5034240;28;20618;-82
2022/05/04 02:45:13;;;;;;;16.43;10.87;;;10.20;23.50;;;;;;5034430;28;20205;-82
2022/05/04 02:47:39;;;;;;;18.20;11.43;;;10.20;23.40;;;;;;5045616;28;20179;-81
2022/05/04 02:50:06;;;;;;;23.57;12.53;;;10.20;23.70;;;;;;5054525;28;20622;-82
2022/05/04 02:52:32;;;;;;;20.40;11.57;;;10.20;24.70;;;;;;5069615;28;20184;-82
2022/05/04 02:54:58;;;;;;;17.33;11.73;;;10.10;24.80;;;;;;5069824;28;20177;-82
2022/05/04 02:57:23;;;;;;;15.90;10.73;;;10.20;26.60;;;;;;5068958;28;20195;-82
2022/05/04 02:59:49;;;;;;;17.70;11.43;;;10.20;26.40;;;;;;5053972;28;20239;-81
2022/05/04 03:02:27;;;;;;;16.17;11.00;;;10.20;25.70;;;;;;5053992;28;20252;-84
2022/05/04 03:05:01;;;;;;;17.63;11.50;;;10.20;25.60;;;;;;5053997;28;20181;-83
2022/05/04 03:07:27;;;;;;;19.13;11.97;;;10.10;24.30;;;;;;5054356;28;20199;-83
2022/05/04 03:09:55;;;;;;;19.33;11.43;;;10.20;26.00;;;;;;5070898;28;20654;-82
2022/05/04 03:12:21;;;;;;;17.03;12.50;;;10.20;24.10;;;;;;5054273;28;20216;-83
2022/05/04 03:14:47;;;;;;;19.27;12.93;;;10.10;24.70;;;;;;5055244;28;20623;-83
2022/05/04 03:17:12;;;;;;;19.17;11.57;;;10.00;31.60;;;;;;5051377;28;20209;-82
2022/05/04 03:19:38;;;;;;;20.57;12.57;;;9.90;34.00;;;;;;5036116;28;20174;-81
2022/05/04 03:22:05;;;;;;;19.17;12.87;;;10.00;33.30;;;;;;5036418;28;20180;-81
2022/05/04 03:24:31;;;;;;;23.00;13.83;;;9.90;33.30;;;;;;5036565;28;20236;-81
2022/05/04 03:26:57;;;;;;;20.50;12.67;;;10.00;34.00;;;;;;5021654;28;20301;-82
2022/05/04 03:29:22;;;;;;;20.57;12.10;;;10.00;33.90;;;;;;5021820;28;20176;-81
2022/05/04 03:31:48;;;;;;;22.23;11.87;;;10.10;32.20;;;;;;5027445;28;20158;-82
2022/05/04 03:34:18;;;;;;;21.03;12.23;;;10.00;30.90;;;;;;5035755;28;20158;-82
2022/05/04 03:36:45;;;;;;;20.17;11.90;;;10.00;29.30;;;;;;5035855;28;20162;-81
2022/05/04 03:39:16;;;;;;;19.87;12.37;;;10.00;26.50;;;;;;5034703;28;20186;-80
2022/05/04 03:41:42;;;;;;;19.90;11.93;;;10.00;25.50;;;;;;5035997;28;20193;-81
2022/05/04 03:44:14;;;;;;;24.07;13.27;;;9.90;26.00;;;;;;5035058;28;20186;-82
2022/05/04 03:46:45;;;;;;;20.77;12.37;;;9.90;27.20;;;;;;5033757;28;20587;-83
2022/05/04 03:49:13;;;;;;;26.23;15.80;;;9.80;26.80;;;;;;5040428;28;20154;-83
2022/05/04 03:51:45;;;;;;;20.63;13.13;;;9.90;29.80;;;;;;5040368;28;20184;-82
2022/05/04 03:54:11;;;;;;;17.63;11.77;;;9.80;29.60;;;;;;5037788;28;20165;-82
2022/05/04 03:56:45;;;;;;;17.47;12.10;;;9.80;29.50;;;;;;5034108;28;20158;-82
2022/05/04 03:59:13;;;;;;;17.50;11.27;;;9.80;27.80;;;;;;5033694;28;20244;-82
2022/05/04 04:01:39;;;;;;;13.33;10.37;;;9.80;25.80;;;;;;5033568;28;20242;-82
2022/05/04 04:04:06;;;;;;;16.87;11.27;;;9.80;27.10;;;;;;5033350;28;20189;-82
2022/05/04 04:06:32;;;;;;;20.10;10.70;;;9.90;25.80;;;;;;5033598;28;20239;-82
2022/05/04 04:08:58;;;;;;;19.00;10.73;;;9.90;24.70;;;;;;5033573;28;20165;-83
2022/05/04 04:11:24;;;;;;;18.57;11.50;;;9.90;23.40;;;;;;5033133;28;20174;-81
2022/05/04 04:13:50;;;;;;;19.50;10.50;;;9.80;24.40;;;;;;5035643;28;20239;-83
2022/05/04 04:16:16;;;;;;;17.50;10.60;;;9.70;28.00;;;;;;5042621;28;20193;-82
2022/05/04 04:18:42;;;;;;;17.23;11.20;;;9.60;28.80;;;;;;5041841;28;20178;-82
2022/05/04 04:23:52;;;;;;;17.23;11.37;;;9.60;29.70;;;;;;5033874;28;20181;-82
2022/05/04 04:26:17;;;;;;;19.37;10.83;;;9.70;26.60;;;;;;5033368;28;20209;-83
2022/05/04 04:28:43;;;;;;;21.00;11.03;;;9.60;25.20;;;;;;5033057;28;20531;-82
2022/05/04 04:31:09;;;;;;;13.37;9.63;;;9.60;26.20;;;;;;5033341;28;20539;-82
2022/05/04 04:33:36;;;;;;;18.63;11.07;;;9.60;26.30;;;;;;5033143;28;20178;-82
2022/05/04 04:36:03;;;;;;;17.13;10.47;;;9.50;27.30;;;;;;5037123;28;20265;-82
2022/05/04 04:38:29;;;;;;;19.53;11.17;;;9.50;29.90;;;;;;5037131;28;20641;-83
2022/05/04 04:40:56;;;;;;;19.13;11.57;;;9.60;32.10;;;;;;5037537;28;20170;-81
2022/05/04 04:43:22;;;;;;;15.80;10.67;;;9.90;27.40;;;;;;5036502;28;20264;-82
2022/05/04 04:45:49;;;;;;;17.90;11.07;;;9.80;23.80;;;;;;5037107;28;20209;-82
2022/05/04 04:48:16;;;;;;;19.37;10.70;;;9.80;25.10;;;;;;5036732;28;20184;-82
2022/05/04 04:50:46;;;;;;;15.90;10.73;;;9.80;23.10;;;;;;5037147;28;20178;-83
2022/05/04 04:53:12;;;;;;;17.53;11.13;;;9.80;23.00;;;;;;5035079;28;20185;-83
2022/05/04 04:55:46;;;;;;;17.87;11.47;;;9.70;23.20;;;;;;5036984;28;20694;-82
2022/05/04 04:58:13;;;;;;;16.57;10.63;;;9.70;26.10;;;;;;5036281;28;20200;-83
2022/05/04 05:00:40;;;;;;;18.70;11.03;;;9.70;24.30;;;;;;5031637;28;20178;-82
2022/05/04 05:03:06;;;;;;;18.60;11.77;;;9.70;26.60;;;;;;5016951;28;20170;-83
2022/05/04 05:05:32;;;;;;;17.77;10.43;;;9.70;25.20;;;;;;5016436;28;20259;-83
2022/05/04 05:07:58;;;;;;;15.20;11.17;;;9.60;27.20;;;;;;5017316;28;20174;-84
2022/05/04 05:10:23;;;;;;;20.23;10.77;;;9.60;29.40;;;;;;5015719;28;20265;-81
2022/05/04 05:12:51;;;;;;;18.00;10.60;;;9.60;28.80;;;;;;5016556;28;20544;-83
2022/05/04 05:18:02;;;;;;;15.97;10.90;;;9.70;27.60;;;;;;5028257;28;20201;-83
2022/05/04 05:20:27;;;;;;;15.17;10.17;;;9.80;24.50;;;;;;5036495;28;20626;-82
2022/05/04 05:22:53;;;;;;;18.17;10.93;;;9.80;22.50;;;;;;5036425;28;20174;-83
2022/05/04 05:25:19;;;;;;;19.23;11.47;;;9.80;23.70;;;;;;5039489;28;20244;-81
2022/05/04 05:27:45;;;;;;;18.33;10.97;;;9.90;22.40;;;;;;5042459;28;20166;-82
2022/05/04 05:30:13;;;;;;;16.47;10.17;;;10.00;19.50;;;;;;5041881;28;20165;-80
2022/05/04 05:32:39;;;;;;;21.43;11.43;;;10.00;19.30;;;;;;5036331;28;20174;-83
2022/05/04 05:35:06;;;;;;;19.97;11.47;;;10.10;18.60;;;;;;5036919;28;20706;-82
2022/05/04 05:37:31;;;;;;;19.93;11.57;;;10.10;17.20;;;;;;5034598;28;20208;-82
2022/05/04 05:39:57;;;;;;;20.70;10.63;;;10.20;13.50;;;;;;5036120;28;20199;-81
2022/05/04 05:42:23;;;;;;;18.17;10.50;;;10.30;10.60;;;;;;5036068;28;20177;-85
2022/05/04 05:44:49;;;;;;;18.97;10.67;;;10.30;7.90;;;;;;5036006;28;20173;-82
2022/05/04 05:47:15;;;;;;;18.27;11.37;;;10.30;6.00;;;;;;5035909;28;20212;-82
2022/05/04 05:49:41;;;;;;;20.17;11.33;;;10.20;7.80;;;;;;5035960;28;20177;-84
2022/05/04 05:52:08;;;;;;;18.93;11.47;;;10.40;7.80;;;;;;5035567;28;20174;-83
2022/05/04 05:54:34;;;;;;;21.70;11.13;;;10.40;4.80;;;;;;5034618;28;20176;-84
2022/05/04 05:57:00;;;;;;;23.60;11.93;;;10.70;1.00;;;;;;5037045;28;20229;-83
2022/05/04 05:59:28;;;;;;;16.47;9.40;;;10.70;1.00;;;;;;5037747;28;20645;-82
2022/05/04 06:01:55;;;;;;;19.53;11.27;;;10.80;1.00;;;;;;5035407;28;20590;-83
2022/05/04 06:04:21;;;;;;;18.57;11.40;;;10.80;1.00;;;;;;5037935;28;20187;-84
2022/05/04 06:06:46;;;;;;;16.47;10.53;;;10.90;1.00;;;;;;5039135;28;20213;-84
2022/05/04 06:09:12;;;;;;;16.53;9.73;;;10.80;1.00;;;;;;5042503;28;20170;-81
2022/05/04 06:11:38;;;;;;;16.57;10.13;;;10.80;1.00;;;;;;5043029;28;20188;-80
2022/05/04 06:14:03;;;;;;;18.27;10.00;;;10.80;1.00;;;;;;5043704;28;20197;-82
2022/05/04 06:16:29;;;;;;;17.40;9.80;;;10.90;1.00;;;;;;5025466;28;20671;-82
2022/05/04 06:18:55;;;;;;;17.70;10.67;;;11.10;1.00;;;;;;5023747;28;20194;-83
2022/05/04 06:21:21;;;;;;;20.03;11.03;;;11.30;1.00;;;;;;5020265;28;20171;-82
2022/05/04 06:23:47;;;;;;;23.63;10.93;;;11.40;1.00;;;;;;5020185;28;20174;-83
2022/05/04 06:26:13;;;;;;;19.10;10.57;;;11.50;1.00;;;;;;5022843;28;20271;-81
2022/05/04 06:28:39;;;;;;;14.97;9.83;;;11.50;1.00;;;;;;5025100;28;20240;-82
2022/05/04 06:34:11;;;;;;;24.00;10.63;;;11.30;1.00;;;;;;5023147;28;20181;-82
2022/05/04 06:36:41;;;;;;;18.77;10.03;;;11.30;1.00;;;;;;5030766;28;20170;-85
2022/05/04 06:39:08;;;;;;;20.07;11.33;;;11.20;1.00;;;;;;5016671;28;20662;-84
2022/05/04 06:41:36;;;;;;;19.27;9.70;;;11.20;1.00;;;;;;5016621;28;20174;-81
2022/05/04 06:44:06;;;;;;;18.47;10.87;;;11.50;1.00;;;;;;5035127;28;20558;-82
2022/05/04 06:46:32;;;;;;;17.33;10.30;;;11.90;1.00;;;;;;5032165;28;20685;-81
2022/05/04 06:48:58;;;;;;;18.80;11.77;;;11.90;1.00;;;;;;5034327;28;20626;-82
2022/05/04 06:51:24;;;;;;;20.17;11.33;;;11.90;1.00;;;;;;5036336;28;20179;-84
2022/05/04 06:53:51;;;;;;;16.83;10.77;;;11.80;1.00;;;;;;5036616;28;20626;-81
2022/05/04 06:56:17;;;;;;;14.70;10.10;;;11.90;1.00;;;;;;5035624;28;20208;-85
2022/05/04 06:58:44;;;;;;;18.80;11.23;;;12.00;1.00;;;;;;5035097;28;20170;-80
2022/05/04 07:01:10;;;;;;;17.43;11.37;;;12.00;1.00;;;;;;5036227;28;20174;-83
2022/05/04 07:03:37;;;;;;;24.00;10.93;;;12.10;1.00;;;;;;5032656;28;20197;-80
2022/05/04 07:06:03;;;;;;;20.00;11.20;;;12.40;1.00;;;;;;5030418;28;20232;-81
2022/05/04 07:08:28;;;;;;;24.80;11.97;;;12.60;1.00;;;;;;5037120;28;20174;-83
2022/05/04 07:10:54;;;;;;;18.77;10.30;;;12.70;1.00;;;;;;5037174;28;20248;-81
2022/05/04 07:13:19;;;;;;;21.77;11.47;;;12.80;1.00;;;;;;5035416;28;20288;-83
2022/05/04 07:15:45;;;;;;;16.83;10.53;;;12.50;1.00;;;;;;5035662;28;20200;-83
2022/05/04 07:18:11;;;;;;;22.03;11.77;;;12.40;1.00;;;;;;5035288;28;20247;-83
2022/05/04 07:20:36;;;;;;;18.13;10.23;;;12.40;1.00;;;;;;5035208;28;20681;-81
2022/05/04 07:23:02;;;;;;;20.10;10.90;;;12.50;1.00;;;;;;5036815;28;20178;-82
2022/05/04 07:25:28;;;;;;;21.43;10.77;;;12.60;1.00;;;;;;5036086;28;20263;-84
2022/05/04 07:27:54;;;;;;;19.80;10.63;;;12.80;1.00;;;;;;5037599;28;20193;-81
2022/05/04 07:30:20;;;;;;;16.30;10.53;;;12.90;1.00;;;;;;5045530;28;20669;-83
2022/05/04 07:32:46;;;;;;;17.33;10.53;;;12.70;1.00;;;;;;5047187;28;20166;-82
2022/05/04 07:35:13;;;;;;;16.70;10.20;;;12.80;1.00;;;;;;5044594;28;20174;-81
2022/05/04 07:37:41;;;;;;;19.07;10.13;;;12.90;1.00;;;;;;5042221;28;20182;-84
2022/05/04 07:42:52;;;;;;;18.90;10.10;;;13.20;1.00;;;;;;5042245;28;20615;-84
2022/05/04 07:45:18;;;;;;;15.33;10.33;;;13.00;1.00;;;;;;5043624;28;20198;-86
2022/05/04 07:47:43;;;;;;;15.83;9.60;;;13.10;1.00;;;;;;5042422;28;20224;-88
2022/05/04 07:50:14;;;;;;;18.83;11.47;;;13.00;1.00;;;;;;5043185;28;20174;-87
2022/05/04 07:52:41;;;;;;;18.27;12.03;;;12.90;1.00;;;;;;5040817;28;20175;-88
2022/05/04 07:55:13;;;;;;;21.80;12.13;;;12.90;1.00;;;;;;5055399;28;20262;-84
2022/05/04 07:57:38;;;;;;;17.73;13.10;;;13.20;1.00;;;;;;5039818;28;20537;-88
2022/05/04 08:05:40;;;;;;;20.47;12.93;;;13.40;1.00;;;;;;5040419;28;20216;-85
2022/05/04 08:08:06;;;;;;;22.50;14.17;;;13.70;1.00;;;;;;5040558;28;20168;-88
2022/05/04 08:10:31;;;;;;;22.87;14.07;;;13.40;1.00;;;;;;5043529;28;20179;-88
2022/05/04 08:12:58;;;;;;;18.20;13.13;;;13.40;1.00;;;;;;5045559;28;20178;-89
2022/05/04 08:15:24;;;;;;;18.93;12.80;;;13.20;1.00;;;;;;5051245;28;20331;-87
2022/05/04 08:17:51;;;;;;;22.57;14.13;;;13.10;1.00;;;;;;5051178;28;20273;-87
2022/05/04 08:20:17;;;;;;;19.67;14.10;;;13.20;1.00;;;;;;5046330;28;20171;-85
2022/05/04 08:22:43;;;;;;;21.90;13.87;;;13.40;1.00;;;;;;5041273;28;20195;-85
2022/05/04 08:25:09;;;;;;;19.20;13.13;;;13.60;99.90;;;;;;5043088;28;20213;-89
2022/05/04 08:27:35;;;;;;;19.03;14.10;;;13.70;99.90;;;;;;5042089;28;20209;-88
2022/05/04 08:30:03;;;;;;;20.57;13.17;;;13.80;99.90;;;;;;5040249;28;20179;-88
2022/05/04 08:32:30;;;;;;;19.07;13.40;;;14.10;99.90;;;;;;5044469;28;20172;-88
2022/05/04 08:34:59;;;;;;;23.47;14.33;;;14.20;99.90;;;;;;5048319;28;20214;-87
2022/05/04 08:37:29;;;;;;;20.30;14.00;;;14.40;99.90;;;;;;5031984;28;20183;-86
2022/05/04 08:39:56;;;;;;;20.50;13.07;;;14.80;1.00;;;;;;5045995;28;20169;-86
2022/05/04 08:42:24;;;;;;;20.10;13.93;;;14.70;1.00;;;;;;5060414;28;20287;-81
2022/05/04 08:44:56;;;;;;;20.17;14.00;;;14.50;1.00;;;;;;5053537;28;20175;-85
2022/05/04 08:47:25;;;;;;;18.03;14.03;;;14.40;1.00;;;;;;5063415;28;20201;-84
2022/05/04 08:49:52;;;;;;;26.53;14.73;;;14.20;1.00;;;;;;5057926;28;20200;-84
2022/05/04 08:52:21;;;;;;;23.73;16.10;;;14.30;1.00;;;;;;5052007;28;20184;-84
2022/05/04 08:54:51;;;;;;;22.20;15.23;;;14.40;1.00;;;;;;5047673;28;20171;-83
2022/05/04 08:57:18;;;;;;;18.73;14.97;;;14.60;1.00;;;;;;5048260;28;20174;-82
2022/05/04 08:59:43;;;;;;;23.93;15.60;;;14.60;1.00;;;;;;5027327;28;20618;-86
2022/05/04 09:02:10;;;;;;;27.07;17.20;;;14.60;1.00;;;;;;5052161;28;20203;-85
2022/05/04 09:04:41;;;;;;;25.03;15.80;;;14.70;99.90;;;;;;5046718;28;20193;-85
2022/05/04 09:07:23;;;;;;;25.07;17.97;;;14.80;99.90;;;;;;5043552;28;20220;-85
2022/05/04 09:09:50;;;;;;;24.37;17.30;;;14.90;1.00;;;;;;5037466;28;20186;-84
2022/05/04 09:12:21;;;;;;;22.57;17.67;;;14.90;99.90;;;;;;5040767;28;20223;-84
2022/05/04 09:14:47;;;;;;;24.20;17.73;;;14.70;99.90;;;;;;5025834;28;20650;-82
2022/05/04 09:17:15;;;;;;;24.13;17.67;;;14.80;99.90;;;;;;5018954;28;20238;-83
2022/05/04 09:22:49;;;;;;;22.70;15.60;;;15.00;99.90;;;;;;5058914;28;20242;-83
2022/05/04 09:25:18;;;;;;;25.60;16.60;;;15.10;99.90;;;;;;5059257;28;20203;-82
2022/05/04 09:27:46;;;;;;;23.07;15.83;;;14.90;99.90;;;;;;5058660;28;20251;-82
2022/05/04 09:30:12;;;;;;;23.20;16.10;;;14.80;1.00;;;;;;5059274;28;20196;-82
2022/05/04 09:32:42;;;;;;;20.07;14.70;;;14.80;58.20;;;;;;5064923;28;20177;-83
2022/05/04 09:35:13;;;;;;;22.37;15.33;;;15.10;1.00;;;;;;5076563;28;20228;-83
2022/05/04 09:45:57;;;;;;;24.83;15.83;;;15.00;99.90;;;;;;5075907;28;20195;-82
2022/05/04 09:48:34;;;;;;;23.27;16.33;;;14.80;1.00;;;;;;5074236;28;20169;-84
2022/05/04 09:51:08;;;;;;;19.03;14.80;;;15.00;1.00;;;;;;5070859;28;20180;-82
2022/05/04 09:53:37;;;;;;;18.73;13.97;;;15.00;1.00;;;;;;5068277;28;20153;-79
2022/05/04 09:56:17;;;;;;;20.67;14.57;;;15.10;1.00;;;;;;5077091;28;20168;-78
2022/05/04 09:58:46;;;;;;;19.33;14.57;;;15.10;99.90;;;;;;5079575;28;20167;-81
2022/05/04 10:01:12;;;;;;;26.00;19.63;;;15.10;99.90;;;;;;5096015;28;20161;-82
2022/05/04 10:03:38;;;;;;;23.43;14.60;;;15.10;1.00;;;;;;5092655;28;20216;-83
2022/05/04 10:06:06;;;;;;;19.00;14.43;;;15.10;1.00;;;;;;5063588;28;20649;-83
2022/05/04 10:08:33;;;;;;;21.13;15.20;;;15.10;1.00;;;;;;5083919;28;20175;-83
2022/05/04 10:10:59;;;;;;;21.00;15.10;;;15.10;99.90;;;;;;5079186;28;20290;-83
2022/05/04 10:13:26;;;;;;;19.03;14.53;;;15.00;1.00;;;;;;5053066;28;20180;-83
2022/05/04 10:15:55;;;;;;;21.37;14.47;;;15.20;1.00;;;;;;5036932;28;20194;-82
2022/05/04 10:18:33;;;;;;;17.87;13.30;;;15.40;1.00;;;;;;5039844;28;20189;-84
2022/05/04 10:21:28;;;;;;;20.47;14.30;;;15.70;99.90;;;;;;5037119;28;20649;-83
2022/05/04 10:23:57;;;;;;;19.67;13.43;;;15.70;1.00;;;;;;5033036;28;20268;-83
2022/05/04 10:26:34;;;;;;;18.83;13.43;;;15.60;99.90;;;;;;5038505;28;20212;-83
2022/05/04 10:31:59;;;;;;;17.60;13.43;;;15.80;15.30;;;;;;5038258;28;20169;-83
2022/05/04 10:34:26;;;;;;;18.30;13.10;;;15.60;1.00;;;;;;5039939;28;20166;-82
2022/05/04 10:36:57;;;;;;;18.77;12.87;;;15.40;1.00;;;;;;5037876;28;20212;-82
2022/05/04 10:39:23;;;;;;;18.83;12.77;;;15.40;1.00;;;;;;5038601;28;20165;-82
2022/05/04 10:41:49;;;;;;;20.43;14.63;;;15.30;1.00;;;;;;5038791;28;20317;-83
2022/05/04 10:44:16;;;;;;;19.63;12.77;;;15.50;1.00;;;;;;5036604;28;20162;-83
2022/05/04 10:46:46;;;;;;;23.93;13.73;;;15.60;1.00;;;;;;5035614;28;20209;-83
2022/05/04 10:49:14;;;;;;;18.17;14.37;;;15.80;99.90;;;;;;5043569;28;20179;-83
2022/05/04 10:51:42;;;;;;;22.13;13.27;;;15.80;1.00;;;;;;5066186;28;20176;-83
2022/05/04 10:54:19;;;;;;;19.87;13.80;;;15.70;1.00;;;;;;5064212;28;20180;-82
2022/05/04 10:56:45;;;;;;;17.83;13.47;;;15.90;99.90;;;;;;5062961;28;20165;-84
2022/05/04 10:59:30;;;;;;;18.23;12.50;;;16.40;1.00;;;;;;5069085;28;20236;-83
2022/05/04 11:02:04;;;;;;;18.53;13.00;;;16.40;92.20;;;;;;5059743;28;20176;-83
2022/05/04 11:04:30;;;;;;;18.00;12.73;;;16.50;1.00;;;;;;5057439;28;20188;-85
2022/05/04 11:07:05;;;;;;;17.33;12.93;;;16.60;1.00;;;;;;5057556;28;20680;-82
2022/05/04 11:09:39;;;;;;;20.07;11.80;;;16.70;1.00;;;;;;5057952;28;20153;-80
2022/05/04 11:12:07;;;;;;;21.40;12.63;;;16.80;99.90;;;;;;5054970;28;20666;-83
2022/05/04 11:14:34;;;;;;;19.23;13.07;;;16.70;1.00;;;;;;5056100;28;20219;-83
2022/05/04 11:17:01;;;;;;;14.80;12.70;;;16.60;1.00;;;;;;5059202;28;20189;-80
2022/05/04 11:19:30;;;;;;;16.97;11.67;;;16.80;1.00;;;;;;5032141;28;20173;-81
2022/05/04 11:21:56;;;;;;;13.97;10.33;;;16.60;99.90;;;;;;5030945;28;20217;-82
2022/05/04 11:24:28;;;;;;;14.13;8.87;;;16.50;1.00;;;;;;5034393;28;20174;-83
2022/05/04 11:26:55;;;;;;;13.77;9.10;;;16.50;1.00;;;;;;5048280;28;20213;-83
2022/05/04 11:29:28;;;;;;;15.03;10.17;;;16.60;99.90;;;;;;5031343;28;20174;-84
2022/05/04 11:31:56;;;;;;;13.43;9.40;;;16.30;1.00;;;;;;5030711;28;20785;-84
2022/05/04 11:34:32;;;;;;;14.10;9.53;;;16.30;1.00;;;;;;5038576;28;20200;-85
2022/05/04 11:37:02;;;;;;;15.23;9.17;;;16.50;1.00;;;;;;5036106;28;20187;-85
2022/05/04 11:39:33;;;;;;;14.13;9.43;;;16.50;99.90;;;;;;5034972;28;20257;-84
2022/05/04 11:42:00;;;;;;;15.90;10.63;;;16.70;37.50;;;;;;5034437;28;20233;-85
2022/05/04 11:44:27;;;;;;;18.93;11.30;;;17.00;99.90;;;;;;5033724;28;20187;-85
2022/05/04 11:46:55;;;;;;;12.70;9.77;;;17.30;1.00;;;;;;5048500;28;20206;-82
2022/05/04 11:49:26;;;;;;;17.07;10.60;;;17.40;1.00;;;;;;5030002;28;20174;-81
2022/05/04 11:51:54;;;;;;;15.37;11.67;;;17.30;1.00;;;;;;5029676;28;20177;-81
2022/05/04 11:54:20;;;;;;;16.93;11.70;;;17.40;1.00;;;;;;5031210;28;20172;-80
2022/05/04 11:56:47;;;;;;;17.37;10.57;;;17.60;1.00;;;;;;5032522;28;20200;-82
2022/05/04 11:59:13;;;;;;;12.67;9.63;;;17.60;99.90;;;;;;5031467;28;20198;-84
2022/05/04 12:01:40;;;;;;;13.00;10.67;;;17.60;99.90;;;;;;5035101;28;20194;-79
2022/05/04 12:04:08;;;;;;;11.17;8.60;;;17.60;99.90;;;;;;5036405;28;20185;-83
2022/05/04 12:06:35;;;;;;;13.23;10.83;;;17.60;1.00;;;;;;5039140;28;20210;-79
2022/05/04 12:09:03;;;;;;;15.07;9.77;;;17.50;99.90;;;;;;5037130;28;20189;-80
2022/05/04 12:11:29;;;;;;;15.27;10.37;;;17.30;99.90;;;;;;5028455;28;20260;-80
2022/05/04 12:13:58;;;;;;;14.03;9.63;;;17.40;1.00;;;;;;5029304;28;20619;-80
2022/05/04 12:16:24;;;;;;;10.90;8.40;;;17.40;99.90;;;;;;5028668;28;20238;-81
2022/05/04 12:18:51;;;;;;;16.73;11.53;;;17.40;99.90;;;;;;5017873;28;20202;-81
2022/05/04 12:21:21;;;;;;;17.73;11.33;;;17.40;99.90;;;;;;5052392;28;20226;-82
2022/05/04 12:23:52;;;;;;;16.03;10.57;;;17.40;1.00;;;;;;5034874;28;20190;-83
2022/05/04 12:26:21;;;;;;;14.67;11.63;;;17.50;1.00;;;;;;5031822;28;20246;-83
2022/05/04 12:34:22;;;;;;;13.03;9.50;;;18.10;99.90;;;;;;5027925;28;20211;-82
2022/05/04 12:36:51;;;;;;;15.97;9.63;;;17.90;1.00;;;;;;5034808;28;20734;-84
2022/05/04 12:39:20;;;;;;;15.17;10.37;;;18.00;1.00;;;;;;5030307;28;20629;-83
2022/05/04 12:41:45;;;;;;;16.87;11.37;;;17.90;1.00;;;;;;5021802;28;20178;-82
2022/05/04 12:44:15;;;;;;;14.13;10.70;;;17.90;1.00;;;;;;5020386;28;20696;-82
2022/05/04 12:46:50;;;;;;;14.90;10.93;;;18.10;1.00;;;;;;5029126;28;20209;-84
2022/05/04 12:49:18;;;;;;;13.13;10.17;;;18.20;1.00;;;;;;5041624;28;20181;-82
2022/05/04 12:51:46;;;;;;;12.67;10.40;;;18.60;99.90;;;;;;5036062;28;20642;-81
2022/05/04 12:54:11;;;;;;;13.30;9.33;;;18.90;99.90;;;;;;5036990;28;20260;-83
2022/05/04 12:56:46;;;;;;;11.77;9.50;;;18.70;1.00;;;;;;5038828;28;20210;-85
2022/05/04 12:59:13;;;;;;;11.60;8.83;;;18.60;1.00;;;;;;5063307;28;20518;-82
2022/05/04 13:01:39;;;;;;;12.97;10.07;;;18.40;1.00;;;;;;5046623;28;20177;-82
2022/05/04 13:04:05;;;;;;;14.20;10.50;;;18.40;1.00;;;;;;5047050;28;20181;-83
2022/05/04 13:06:30;;;;;;;13.07;9.67;;;18.40;1.00;;;;;;5042883;28;20199;-81
2022/05/04 13:08:56;;;;;;;11.70;9.57;;;18.50;1.00;;;;;;5026573;28;20253;-82
2022/05/04 13:11:25;;;;;;;12.87;10.27;;;18.50;99.90;;;;;;5025941;28;20652;-84
2022/05/04 13:14:04;;;;;;;13.47;11.07;;;18.20;99.90;;;;;;5034241;28;20718;-83